createdAt,value
2018-04-17T00:01:15.427Z,3.33
2018-04-17T00:03:42.981Z,4.00
2018-04-17T00:06:10.550Z,3.50
2018-04-17T00:08:38.086Z,3.53
2018-04-17T00:11:05.717Z,3.73
2018-04-17T00:13:33.238Z,3.10
2018-04-17T00:16:00.791Z,4.03
2018-04-17T00:18:28.318Z,3.72
2018-04-17T00:20:55.954Z,3.97
2018-04-17T00:23:23.496Z,3.60
2018-04-17T00:25:51.074Z,3.60
2018-04-17T00:28:18.597Z,3.47
2018-04-17T00:30:46.205Z,3.27
2018-04-17T00:33:13.729Z,3.87
2018-04-17T00:35:41.287Z,3.50
2018-04-17T00:38:08.809Z,3.07
2018-04-17T00:40:36.339Z,3.25
2018-04-17T00:43:03.889Z,2.50
2018-04-17T00:45:31.448Z,2.80
2018-04-17T00:47:58.993Z,3.03
2018-04-17T00:50:26.522Z,3.20
2018-04-17T00:52:54.077Z,3.17
2018-04-17T00:55:21.673Z,2.90
2018-04-17T00:57:49.245Z,3.00
2018-04-17T01:00:16.802Z,3.00
2018-04-17T01:02:44.357Z,2.73
2018-04-17T01:05:11.889Z,2.93
2018-04-17T01:07:39.441Z,2.75
2018-04-17T01:10:06.995Z,2.60
2018-04-17T01:12:34.543Z,3.00
2018-04-17T01:15:02.050Z,3.00
2018-04-17T01:17:29.722Z,2.60
2018-04-17T01:19:57.247Z,3.43
2018-04-17T01:22:24.854Z,3.40
2018-04-17T01:24:52.406Z,3.67
2018-04-17T01:27:19.960Z,3.97
2018-04-17T01:29:47.477Z,3.62
2018-04-17T01:32:15.688Z,3.55
2018-04-17T01:34:43.266Z,3.50
2018-04-17T01:37:10.815Z,3.60
2018-04-17T01:39:38.322Z,3.10
2018-04-17T01:42:05.934Z,3.20
2018-04-17T01:44:33.471Z,3.17
2018-04-17T01:47:01.051Z,3.57
2018-04-17T01:49:28.621Z,4.27
2018-04-17T01:51:56.280Z,4.00
2018-04-17T01:54:27.348Z,3.93
2018-04-17T01:56:55.284Z,4.20
2018-04-17T01:59:22.839Z,3.28
2018-04-17T02:01:50.831Z,3.63
2018-04-17T02:04:18.417Z,3.83
2018-04-17T02:06:45.974Z,3.33
2018-04-17T02:09:13.701Z,3.33
2018-04-17T02:11:41.256Z,3.57
2018-04-17T02:14:08.824Z,3.97
2018-04-17T02:16:36.356Z,3.53
2018-04-17T02:19:03.935Z,4.00
2018-04-17T02:21:31.457Z,4.20
2018-04-17T02:23:59.062Z,5.27
2018-04-17T02:26:26.615Z,5.33
2018-04-17T02:28:54.173Z,4.70
2018-04-17T02:31:21.695Z,5.43
2018-04-17T02:33:49.242Z,5.10
2018-04-17T02:36:16.774Z,5.20
2018-04-17T02:38:44.348Z,4.40
2018-04-17T02:41:11.879Z,5.22
2018-04-17T02:43:39.535Z,6.07
2018-04-17T02:46:07.092Z,4.60
2018-04-17T02:48:34.661Z,4.30
2018-04-17T02:51:02.215Z,4.33
2018-04-17T02:53:29.761Z,5.03
2018-04-17T02:55:57.341Z,4.87
2018-04-17T02:58:24.884Z,5.10
2018-04-17T03:00:52.447Z,5.10
2018-04-17T03:03:20.009Z,5.70
2018-04-17T03:05:47.547Z,6.37
2018-04-17T03:08:15.126Z,4.65
2018-04-17T03:10:42.687Z,5.07
2018-04-17T03:13:10.359Z,5.80
2018-04-17T03:15:37.877Z,5.23
2018-04-17T03:18:05.433Z,5.80
2018-04-17T03:20:33.026Z,5.30
2018-04-17T03:23:00.558Z,4.83
2018-04-17T03:25:28.146Z,5.47
2018-04-17T03:27:55.709Z,5.60
2018-04-17T03:30:23.221Z,5.30
2018-04-17T03:32:50.800Z,5.17
2018-04-17T03:35:19.238Z,5.10
2018-04-17T03:37:46.758Z,5.40
2018-04-17T03:40:14.330Z,5.57
2018-04-17T03:42:41.830Z,5.33
2018-04-17T03:45:09.440Z,6.33
2018-04-17T03:47:36.958Z,6.80
2018-04-17T03:50:04.561Z,7.20
2018-04-17T03:52:32.118Z,7.57
2018-04-17T03:54:59.695Z,8.25
2018-04-17T03:57:27.218Z,7.73
2018-04-17T03:59:54.877Z,7.27
2018-04-17T04:02:22.418Z,6.83
2018-04-17T04:04:50.428Z,6.30
2018-04-17T04:07:17.996Z,6.90
2018-04-17T04:09:45.656Z,6.57
2018-04-17T04:12:13.209Z,6.53
2018-04-17T04:14:40.756Z,6.23
2018-04-17T04:17:20.113Z,5.97
2018-04-17T04:19:59.531Z,5.33
2018-04-17T04:22:38.877Z,5.40
2018-04-17T04:28:08.621Z,5.47
2018-04-17T04:30:36.264Z,5.70
2018-04-17T04:33:03.828Z,5.77
2018-04-17T04:35:31.388Z,5.37
2018-04-17T04:37:58.897Z,5.93
2018-04-17T04:40:26.449Z,5.50
2018-04-17T04:42:54.062Z,5.73
2018-04-17T04:45:21.647Z,5.53
2018-04-17T04:47:49.189Z,4.97
2018-04-17T04:50:16.745Z,5.63
2018-04-17T04:52:44.269Z,6.17
2018-04-17T04:55:11.821Z,5.90
2018-04-17T04:57:39.431Z,5.70
2018-04-17T05:00:07.002Z,6.50
2018-04-17T05:02:34.550Z,6.60
2018-04-17T05:05:02.106Z,7.27
2018-04-17T05:07:29.658Z,6.77
2018-04-17T05:09:57.331Z,6.70
2018-04-17T05:12:24.864Z,6.87
2018-04-17T05:14:52.401Z,6.40
2018-04-17T05:17:20.721Z,6.37
2018-04-17T05:19:48.384Z,6.83
2018-04-17T05:22:15.942Z,6.77
2018-04-17T05:24:43.606Z,6.70
2018-04-17T05:27:11.171Z,7.00
2018-04-17T05:29:39.298Z,7.67
2018-04-17T05:32:06.858Z,7.67
2018-04-17T05:34:34.457Z,8.40
2018-04-17T05:37:02.035Z,9.13
2018-04-17T05:39:29.679Z,9.60
2018-04-17T05:41:57.242Z,9.00
2018-04-17T05:44:24.796Z,8.70
2018-04-17T05:46:52.369Z,9.80
2018-04-17T05:49:20.801Z,9.10
2018-04-17T05:51:48.342Z,9.80
2018-04-17T05:54:15.854Z,10.33
2018-04-17T05:56:43.434Z,10.40
2018-04-17T05:59:10.974Z,10.57
2018-04-17T06:01:38.541Z,10.10
2018-04-17T06:04:06.064Z,9.97
2018-04-17T06:06:33.616Z,9.95
2018-04-17T06:09:01.316Z,8.73
2018-04-17T06:11:28.893Z,42.00
2018-04-17T06:13:57.143Z,19.57
2018-04-17T06:16:24.722Z,11.10
2018-04-17T06:18:52.253Z,9.23
2018-04-17T06:21:20.801Z,9.10
2018-04-17T06:23:48.422Z,8.00
2018-04-17T06:26:16.081Z,8.70
2018-04-17T06:28:43.635Z,8.63
2018-04-17T06:31:11.161Z,8.33
2018-04-17T06:33:39.837Z,6.77
2018-04-17T06:36:07.567Z,7.60
2018-04-17T06:38:35.110Z,7.33
2018-04-17T06:41:02.642Z,7.80
2018-04-17T06:43:30.201Z,7.37
2018-04-17T06:45:57.730Z,7.40
2018-04-17T06:48:25.274Z,6.93
2018-04-17T06:50:52.802Z,7.73
2018-04-17T06:53:21.078Z,7.07
2018-04-17T06:55:48.634Z,7.00
2018-04-17T06:58:16.159Z,8.33
2018-04-17T07:00:43.765Z,7.37
2018-04-17T07:03:11.291Z,7.77
2018-04-17T07:05:38.841Z,7.13
2018-04-17T07:08:06.368Z,7.07
2018-04-17T07:10:33.920Z,7.73
2018-04-17T07:13:01.556Z,6.70
2018-04-17T07:15:29.125Z,7.07
2018-04-17T07:17:56.653Z,7.03
2018-04-17T07:20:24.213Z,6.97
2018-04-17T07:22:52.185Z,6.53
2018-04-17T07:25:19.763Z,6.60
2018-04-17T07:27:47.316Z,6.13
2018-04-17T07:30:14.891Z,5.60
2018-04-17T07:32:42.418Z,6.40
2018-04-17T07:35:10.099Z,5.90
2018-04-17T07:37:37.657Z,6.07
2018-04-17T07:40:05.248Z,6.27
2018-04-17T07:42:32.778Z,6.23
2018-04-17T07:45:00.444Z,6.33
2018-04-17T07:47:29.140Z,6.57
2018-04-17T07:49:56.709Z,6.73
2018-04-17T07:52:24.362Z,6.67
2018-04-17T07:54:52.418Z,6.78
2018-04-17T07:57:19.992Z,6.83
2018-04-17T07:59:47.571Z,5.50
2018-04-17T08:02:15.120Z,6.63
2018-04-17T08:04:42.699Z,5.73
2018-04-17T08:07:10.398Z,6.28
2018-04-17T08:09:37.953Z,5.40
2018-04-17T08:12:05.527Z,6.00
2018-04-17T08:14:33.099Z,5.70
2018-04-17T08:17:00.662Z,5.40
2018-04-17T08:19:28.331Z,5.57
2018-04-17T08:21:55.862Z,5.47
2018-04-17T08:24:23.441Z,5.53
2018-04-17T08:26:51.017Z,6.30
2018-04-17T08:29:18.590Z,6.67
2018-04-17T08:31:46.146Z,6.67
2018-04-17T08:34:13.676Z,6.73
2018-04-17T08:36:41.350Z,6.43
2018-04-17T08:39:08.902Z,6.57
2018-04-17T08:41:36.454Z,6.27
2018-04-17T08:44:03.989Z,6.32
2018-04-17T08:46:31.542Z,6.10
2018-04-17T08:48:59.078Z,6.20
2018-04-17T08:51:28.207Z,5.45
2018-04-17T08:53:55.764Z,6.33
2018-04-17T08:56:23.317Z,6.70
2018-04-17T08:58:50.857Z,5.30
2018-04-17T09:01:18.424Z,5.13
2018-04-17T09:03:45.973Z,4.87
2018-04-17T09:06:14.026Z,5.57
2018-04-17T09:08:41.673Z,4.93
2018-04-17T09:11:09.298Z,4.77
2018-04-17T09:13:36.840Z,4.53
2018-04-17T09:16:04.442Z,4.27
2018-04-17T09:18:32.902Z,4.00
2018-04-17T09:21:00.593Z,4.62
2018-04-17T09:23:32.502Z,4.20
2018-04-17T09:26:00.194Z,4.43
2018-04-17T09:28:27.746Z,3.17
2018-04-17T09:30:55.346Z,3.17
2018-04-17T09:33:24.400Z,4.10
2018-04-17T09:35:51.923Z,3.63
2018-04-17T09:38:22.319Z,4.50
2018-04-17T09:40:50.030Z,3.30
2018-04-17T09:43:17.591Z,3.50
2018-04-17T09:45:45.139Z,3.90
2018-04-17T09:48:12.716Z,4.17
2018-04-17T09:50:40.359Z,3.27
2018-04-17T09:53:07.920Z,3.78
2018-04-17T09:55:35.448Z,3.52
2018-04-17T09:58:03.031Z,3.73
2018-04-17T10:00:30.563Z,4.33
2018-04-17T10:02:58.201Z,4.70
2018-04-17T10:05:25.782Z,4.53
2018-04-17T10:07:53.362Z,4.33
2018-04-17T10:10:21.000Z,4.67
2018-04-17T10:12:48.563Z,4.20
2018-04-17T10:15:17.947Z,4.50
2018-04-17T10:17:47.376Z,4.00
2018-04-17T10:20:16.897Z,4.43
2018-04-17T10:22:44.596Z,4.17
2018-04-17T10:25:12.904Z,4.67
2018-04-17T10:27:42.304Z,5.50
2018-04-17T10:30:10.277Z,5.53
2018-04-17T10:32:39.372Z,4.60
2018-04-17T10:35:07.086Z,5.07
2018-04-17T10:37:35.869Z,4.33
2018-04-17T10:40:03.662Z,6.12
2018-04-17T10:42:33.040Z,6.73
2018-04-17T10:45:00.817Z,5.40
2018-04-17T10:47:31.417Z,5.17
2018-04-17T10:50:01.824Z,4.87
2018-04-17T10:52:29.820Z,5.00
2018-04-17T10:55:02.131Z,5.10
2018-04-17T10:57:29.955Z,4.90
2018-04-17T11:00:00.252Z,4.90
2018-04-17T11:02:30.273Z,4.87
2018-04-17T11:04:58.993Z,5.27
2018-04-17T11:07:27.749Z,5.07
2018-04-17T11:09:59.236Z,4.75
2018-04-17T11:12:26.893Z,4.87
2018-04-17T11:14:54.493Z,4.83
2018-04-17T11:17:22.100Z,5.13
2018-04-17T11:19:49.732Z,3.40
2018-04-17T11:22:17.602Z,3.90
2018-04-17T11:24:47.273Z,3.40
2018-04-17T11:27:15.300Z,4.00
2018-04-17T11:29:42.883Z,4.57
2018-04-17T11:32:10.459Z,4.17
2018-04-17T11:34:38.329Z,4.40
2018-04-17T11:37:05.863Z,5.07
2018-04-17T11:39:33.418Z,4.23
2018-04-17T11:42:01.025Z,4.40
2018-04-17T11:44:28.622Z,4.07
2018-04-17T11:46:56.324Z,4.45
2018-04-17T11:49:28.608Z,4.30
2018-04-17T11:51:59.077Z,3.73
2018-04-17T11:54:32.163Z,4.73
2018-04-17T11:57:00.433Z,3.77
2018-04-17T11:59:28.602Z,3.77
2018-04-17T12:01:59.061Z,3.70
2018-04-17T12:04:26.686Z,4.07
2018-04-17T12:06:54.218Z,3.60
2018-04-17T12:09:21.842Z,3.80
2018-04-17T12:11:49.400Z,3.93
2018-04-17T12:14:16.949Z,4.77
2018-04-17T12:16:44.457Z,4.07
2018-04-17T12:19:15.420Z,4.00
2018-04-17T12:21:43.154Z,3.83
2018-04-17T12:24:10.857Z,3.62
2018-04-17T12:26:38.413Z,4.43
2018-04-17T12:29:05.957Z,3.57
2018-04-17T12:31:33.531Z,3.70
2018-04-17T12:34:01.066Z,3.80
2018-04-17T12:36:28.668Z,3.53
2018-04-17T12:38:56.475Z,3.05
2018-04-17T12:41:24.038Z,3.87
2018-04-17T12:43:51.575Z,3.73
2018-04-17T12:46:19.294Z,3.40
2018-04-17T12:48:46.857Z,4.17
2018-04-17T12:51:14.402Z,3.77
2018-04-17T12:53:41.976Z,3.63
2018-04-17T12:56:11.953Z,3.93
2018-04-17T12:58:40.440Z,4.45
2018-04-17T13:01:08.030Z,4.10
2018-04-17T13:03:41.844Z,3.87
2018-04-17T13:06:09.843Z,3.17
2018-04-17T13:08:44.115Z,3.65
2018-04-17T13:11:11.943Z,3.43
2018-04-17T13:13:44.018Z,2.93
2018-04-17T13:16:11.803Z,3.03
2018-04-17T13:18:39.616Z,3.20
2018-04-17T13:21:07.261Z,2.90
2018-04-17T13:23:36.462Z,3.07
2018-04-17T13:26:05.238Z,3.80
2018-04-17T13:28:37.027Z,3.78
2018-04-17T13:31:04.851Z,3.33
2018-04-17T13:33:34.896Z,3.83
2018-04-17T13:36:03.874Z,3.30
2018-04-17T13:38:36.294Z,3.23
2018-04-17T13:41:09.206Z,3.70
2018-04-17T13:43:37.725Z,3.50
2018-04-17T13:46:10.494Z,2.70
2018-04-17T13:48:41.230Z,2.92
2018-04-17T13:51:10.539Z,2.77
2018-04-17T13:53:45.056Z,3.28
2018-04-17T13:56:17.263Z,2.93
2018-04-17T13:58:47.488Z,2.67
2018-04-17T14:01:19.762Z,2.92
2018-04-17T14:03:47.947Z,2.27
2018-04-17T14:06:17.748Z,2.70
2018-04-17T14:08:47.647Z,3.03
2018-04-17T14:11:17.663Z,3.53
2018-04-17T14:13:50.478Z,3.00
2018-04-17T14:16:18.562Z,2.63
2018-04-17T14:18:49.810Z,3.00
2018-04-17T14:21:17.492Z,3.20
2018-04-17T14:23:48.334Z,3.13
2018-04-17T14:26:16.097Z,3.40
2018-04-17T14:28:44.275Z,2.30
2018-04-17T14:31:11.798Z,2.15
2018-04-17T14:33:39.389Z,3.20
2018-04-17T14:36:06.930Z,2.50
2018-04-17T14:38:34.480Z,2.67
2018-04-17T14:41:02.015Z,2.53
2018-04-17T14:43:29.585Z,2.07
2018-04-17T14:45:57.963Z,2.40
2018-04-17T14:48:25.540Z,2.43
2018-04-17T14:50:53.065Z,2.20
2018-04-17T14:53:20.621Z,2.57
2018-04-17T14:55:48.220Z,2.50
2018-04-17T14:58:15.770Z,2.40
2018-04-17T15:00:43.330Z,2.70
2018-04-17T15:03:10.903Z,2.25
2018-04-17T15:05:38.479Z,1.70
2018-04-17T15:08:06.058Z,2.50
2018-04-17T15:10:33.609Z,3.17
2018-04-17T15:13:01.190Z,2.00
2018-04-17T15:15:28.817Z,2.30
2018-04-17T15:17:56.481Z,2.33
2018-04-17T15:20:24.019Z,1.80
2018-04-17T15:22:51.590Z,2.30
2018-04-17T15:25:19.831Z,2.43
2018-04-17T15:27:47.737Z,2.07
2018-04-17T15:30:15.408Z,1.80
2018-04-17T15:32:44.082Z,2.30
2018-04-17T15:35:12.055Z,1.83
2018-04-17T15:37:39.585Z,2.10
2018-04-17T15:40:08.186Z,1.83
2018-04-17T15:42:35.709Z,2.83
2018-04-17T15:45:03.291Z,2.13
2018-04-17T15:47:31.714Z,2.15
2018-04-17T15:49:59.321Z,2.10
2018-04-17T15:52:27.072Z,2.43
2018-04-17T15:54:54.625Z,2.00
2018-04-17T15:57:22.156Z,2.30
2018-04-17T15:59:50.204Z,1.93
2018-04-17T16:02:21.342Z,2.20
2018-04-17T16:04:48.909Z,2.23
2018-04-17T16:07:16.461Z,2.73
2018-04-17T16:09:44.066Z,1.93
2018-04-17T16:12:13.699Z,2.35
2018-04-17T16:14:42.263Z,2.37
2018-04-17T16:17:09.890Z,2.10
2018-04-17T16:19:40.121Z,2.30
2018-04-17T16:22:08.389Z,1.93
2018-04-17T16:24:39.155Z,2.20
2018-04-17T16:27:08.047Z,2.00
2018-04-17T16:29:41.538Z,2.03
2018-04-17T16:32:12.734Z,1.83
2018-04-17T16:34:41.982Z,2.10
2018-04-17T16:37:12.388Z,1.62
2018-04-17T16:39:45.286Z,1.87
2018-04-17T16:42:16.196Z,1.97
2018-04-17T16:44:48.459Z,1.77
2018-04-17T16:47:18.476Z,1.67
2018-04-17T16:49:48.683Z,1.50
2018-04-17T16:52:18.307Z,1.50
2018-04-17T16:54:50.348Z,1.67
2018-04-17T16:57:19.933Z,1.80
2018-04-17T16:59:49.978Z,2.13
2018-04-17T17:02:17.606Z,1.70
2018-04-17T17:04:46.734Z,1.70
2018-04-17T17:07:15.206Z,1.80
2018-04-17T17:09:44.768Z,1.60
2018-04-17T17:12:13.339Z,1.80
2018-04-17T17:14:45.193Z,1.77
2018-04-17T17:17:14.579Z,1.90
2018-04-17T17:19:42.146Z,1.80
2018-04-17T17:22:10.031Z,1.90
2018-04-17T17:24:39.034Z,2.10
2018-04-17T17:27:06.814Z,2.60
2018-04-17T17:29:39.504Z,10.98
2018-04-17T17:32:07.598Z,41.53
2018-04-17T17:34:37.292Z,16.27
2018-04-17T17:37:07.475Z,6.53
2018-04-17T17:39:35.150Z,16.60
2018-04-17T17:42:03.524Z,27.07
2018-04-17T17:44:34.177Z,12.17
2018-04-17T17:47:04.770Z,6.47
2018-04-17T17:49:33.454Z,5.47
2018-04-17T17:52:03.088Z,3.70
2018-04-17T17:54:32.107Z,3.63
2018-04-17T17:57:02.519Z,3.60
2018-04-17T17:59:30.668Z,3.63
2018-04-17T18:01:58.831Z,3.90
2018-04-17T18:04:29.331Z,3.57
2018-04-17T18:06:57.228Z,3.60
2018-04-17T18:09:27.240Z,3.93
2018-04-17T18:11:55.230Z,3.60
2018-04-17T18:14:23.185Z,4.63
2018-04-17T18:16:51.356Z,4.50
2018-04-17T18:19:19.537Z,4.63
2018-04-17T18:21:47.087Z,5.03
2018-04-17T18:24:14.753Z,4.10
2018-04-17T18:26:42.289Z,3.28
2018-04-17T18:29:09.979Z,3.30
2018-04-17T18:31:37.493Z,3.27
2018-04-17T18:34:05.066Z,4.17
2018-04-17T18:36:32.598Z,3.50
2018-04-17T18:39:00.200Z,3.77
2018-04-17T18:41:27.734Z,3.57
2018-04-17T18:43:55.256Z,3.67
2018-04-17T18:46:22.809Z,3.80
2018-04-17T18:48:50.577Z,3.20
2018-04-17T18:51:18.733Z,3.10
2018-04-17T18:53:46.433Z,3.73
2018-04-17T18:56:14.168Z,3.80
2018-04-17T18:58:41.718Z,3.97
2018-04-17T19:01:09.345Z,3.75
2018-04-17T19:03:37.649Z,3.93
2018-04-17T19:06:05.284Z,3.43
2018-04-17T19:08:32.826Z,3.40
2018-04-17T19:11:00.430Z,4.23
2018-04-17T19:13:27.991Z,3.40
2018-04-17T19:15:55.652Z,3.70
2018-04-17T19:18:23.170Z,3.83
2018-04-17T19:20:50.690Z,4.40
2018-04-17T19:23:18.245Z,3.78
2018-04-17T19:25:45.758Z,3.73
2018-04-17T19:28:13.317Z,3.35
2018-04-17T19:30:40.848Z,3.60
2018-04-17T19:33:11.043Z,3.40
2018-04-17T19:35:38.800Z,3.33
2018-04-17T19:38:06.457Z,3.27
2018-04-17T19:40:34.012Z,3.13
2018-04-17T19:43:02.221Z,2.73
2018-04-17T19:45:29.879Z,2.80
2018-04-17T19:47:57.413Z,3.40
2018-04-17T19:50:24.966Z,3.07
2018-04-17T19:52:52.518Z,2.70
2018-04-17T19:55:20.073Z,2.43
2018-04-17T19:57:47.620Z,2.73
2018-04-17T20:00:15.319Z,3.02
2018-04-17T20:02:42.853Z,3.27
2018-04-17T20:05:10.406Z,3.00
2018-04-17T20:07:37.926Z,3.10
2018-04-17T20:10:05.504Z,3.07
2018-04-17T20:12:33.034Z,3.20
2018-04-17T20:15:00.588Z,3.00
2018-04-17T20:17:28.138Z,2.93
2018-04-17T20:19:55.691Z,3.20
2018-04-17T20:22:23.314Z,3.10
2018-04-17T20:24:50.902Z,2.50
2018-04-17T20:27:18.565Z,3.07
2018-04-17T20:29:46.100Z,3.00
2018-04-17T20:32:13.682Z,3.13
2018-04-17T20:34:41.210Z,3.20
2018-04-17T20:37:08.907Z,3.07
2018-04-17T20:39:36.460Z,2.50
2018-04-17T20:42:04.037Z,3.37
2018-04-17T20:44:32.775Z,3.53
2018-04-17T20:47:00.468Z,3.30
2018-04-17T20:49:28.936Z,3.63
2018-04-17T20:51:56.890Z,5.03
2018-04-17T20:54:25.248Z,5.20
2018-04-17T20:56:52.830Z,5.00
2018-04-17T20:59:20.654Z,4.47
2018-04-17T21:01:48.527Z,4.80
2018-04-17T21:04:16.134Z,4.10
2018-04-17T21:06:43.662Z,3.60
2018-04-17T21:09:11.236Z,3.00
2018-04-17T21:11:38.793Z,3.97
2018-04-17T21:14:06.392Z,3.67
2018-04-17T21:16:33.918Z,3.50
2018-04-17T21:19:01.498Z,3.37
2018-04-17T21:21:29.074Z,3.97
2018-04-17T21:23:56.599Z,4.13
2018-04-17T21:26:24.202Z,3.87
2018-04-17T21:28:51.755Z,4.00
2018-04-17T21:31:19.334Z,3.83
2018-04-17T21:33:46.861Z,3.73
2018-04-17T21:36:14.449Z,3.55
2018-04-17T21:38:41.965Z,3.70
2018-04-17T21:41:09.517Z,3.62
2018-04-17T21:43:37.045Z,3.50
2018-04-17T21:46:04.595Z,3.00
2018-04-17T21:48:32.697Z,3.60
2018-04-17T21:51:00.225Z,3.10
2018-04-17T21:53:27.872Z,3.00
2018-04-17T21:55:55.419Z,3.90
2018-04-17T21:58:22.984Z,3.87
2018-04-17T22:00:50.641Z,4.37
2018-04-17T22:03:18.301Z,3.80
2018-04-17T22:05:45.860Z,3.37
2018-04-17T22:08:13.523Z,3.13
2018-04-17T22:10:41.041Z,3.03
2018-04-17T22:13:08.644Z,3.28
2018-04-17T22:15:36.199Z,2.90
2018-04-17T22:18:03.773Z,2.83
2018-04-17T22:20:31.301Z,2.70
2018-04-17T22:23:01.754Z,2.70
2018-04-17T22:25:29.562Z,3.00
2018-04-17T22:27:57.141Z,2.30
2018-04-17T22:30:24.732Z,2.95
2018-04-17T22:32:52.263Z,3.40
2018-04-17T22:35:20.791Z,3.00
2018-04-17T22:37:48.319Z,2.60
2018-04-17T22:40:15.922Z,2.78
2018-04-17T22:42:43.474Z,3.70
2018-04-17T22:45:11.074Z,4.20
2018-04-17T22:47:38.627Z,4.80
2018-04-17T22:50:06.232Z,5.40
2018-04-17T22:52:33.783Z,3.73
2018-04-17T22:55:01.363Z,3.87
2018-04-17T22:57:28.969Z,3.80
2018-04-17T22:59:56.540Z,3.93
2018-04-17T23:02:24.095Z,4.27
2018-04-17T23:04:51.619Z,4.83
2018-04-17T23:07:19.190Z,4.17
2018-04-17T23:09:46.811Z,4.17
2018-04-17T23:12:14.370Z,4.57
2018-04-17T23:14:42.046Z,3.80
2018-04-17T23:17:09.606Z,4.03
2018-04-17T23:19:37.125Z,4.47
2018-04-17T23:22:04.811Z,4.20
2018-04-17T23:24:32.986Z,4.15
2018-04-17T23:27:00.708Z,4.50
2018-04-17T23:29:28.265Z,4.83
2018-04-17T23:31:56.138Z,5.00
2018-04-17T23:34:23.670Z,5.20
2018-04-17T23:36:51.297Z,5.37
2018-04-17T23:39:18.854Z,5.50
2018-04-17T23:41:46.430Z,4.63
2018-04-17T23:44:14.002Z,4.62
2018-04-17T23:46:41.551Z,5.00
2018-04-17T23:49:09.801Z,5.13
2018-04-17T23:51:37.336Z,5.60
2018-04-17T23:54:05.862Z,4.95
2018-04-17T23:56:34.793Z,6.00
2018-04-17T23:59:03.118Z,5.22
